Terminal Aerodrome Forecast
Issued by NWS Sterling, VA

Home | Current Version | Previous Version | Text Only | Print | Product List | Glossary On
Versions: 1 2 3 4 5 6 7 8 9 10 11 12 13 14 15
063
FTUS41 KLWX 252102 AAB
TAFCHO
TAF AMD
KCHO 252102Z 2521/2618 03013KT 5SM BR OVC015
     FM260000 36007KT 3SM BR OVC015
     FM260300 34005KT 3SM BR OVC025
     FM260600 32004KT 2SM BR BKN050
     FM261200 VRB03KT 5SM BR BKN050
     FM261300 VRB03KT P6SM SCT050=

USA.gov is the U.S. government's official web portal to all federal, state and local government web resources and services.